Lexington, TX (78947)

3:14 AM CST on November 22, 2014 (GMT -0600)
AB5KT - Texas Radio Operator | Change Station
CLOSE
Current Station
Personal Weather Station
Location: Thorndale, TX
Elevation: 574 ft
Nearby Weather Stations

Elev 574 ft 30.51 °N, 97.16 °W | Updated 16 seconds ago

Overcast
Overcast
64.2 °F
Feels Like 64.2 °F
N
8.9
Wind Variable Wind from SE
Gusts 11.0 mph

Today
High -- | Low -- °F
--% Chance of Precip.
Yesterday
High -- | Low -- °F
Precip. -- in
6:59 AM 5:28 PM
Waning Crescent, 0% visible
Pressure 30.10 in
Visibility 7.0 miles
Clouds Mostly Cloudy 900 ft
Overcast 1200 ft
Dew Point 63 °F
Humidity 95%
Rainfall 0.00 in
Snow Depth Not available.
UV 0 out of 12
Pollen 3.20 out of 12
Air Quality Not available.
Flu Activity Not available.
METAR KGYB 220855Z AUTO 14005KT 7SM BKN009 OVC012 18/17 A3010 RMK AO2 T01750165

More Conditions Fewer Conditions

Pressure 30.10 in
Visibility 7.0 miles
Clouds Mostly Cloudy 900 ft
Overcast 1200 ft
Dew Point 63 °F
Humidity 95%
Rainfall 0.00 in
Snow Depth Not available.
UV 0 out of 12
Pollen 3.20 out of 12
Air Quality Not available.
Flu Activity Not available.
METAR KGYB 220855Z AUTO 14005KT 7SM BKN009 OVC012 18/17 A3010 RMK AO2 T01750165

More Conditions Fewer Conditions

Nowcast | as of 1:14 am CST on November 22, 2014

Isolated showers are currently moving north through south central Texas. These showers should only result in light to briefly moderate rain however a lightning strike or two is not out of the question. Rain rates will generally only be a trace to a few hundredths of an inch per hour but locally up to a tenth per hour is possible. Winds will also be breezy and out of the southeast from 10-20 mph.

×

10-Day Weather Forecast

Almanac

Astronomy

Nov. 22, 2014 Rise Set
Actual Time
Civil Twilight
Nautical Twilight
Astronomical Twilight
Moon
Length of Visible Light
Length of Day
Tomorrow will be .
, % of the Moon is Illuminated

Today's Extremes

State Highs State Lows

Community

WunderPhotos

Upload Photos

1,772,794 photos uploaded!

WunderBlogs® & News

Nearby

Air Quality

  Air Quality AQ Index Pollutant
Not available.

Snow Depth

Station Depth Elevation

Earthquake Activity

City Distance Mag. Time & Date
Minimum magnitude displayed is 2.5.

Coastal Water Temperatures

Place Temperature

Nearby Weather Stations